SBTT/TBT METAR and TAF weather

Enter ICAO airport designator
Station Type Date Time Source
SBTT METAR 2020/05/25 22:00 UTC NOAA

SBTT 252200Z 15004KT 9999 BKN015 23/21 Q1014


Station Type Date Time Source
SBTT Decoded METAR 2020/05/25 22:00 UTC NOAA

Tabatinga, Brazil (SBTT) 03-40S 069-40W
May 25, 2020 - 06:00 PM EDT / 2020.05.25 2200 UTC
Wind: from the SSE (150 degrees) at 5 MPH (4 KT):0
Visibility: greater than 7 mile(s):0
Sky conditions: mostly cloudy
Temperature: 73 F (23 C)
Dew Point: 69 F (21 C)
Relative Humidity: 88%
Pressure (altimeter): 29.94 in. Hg (1014 hPa)
ob: SBTT 252200Z 15004KT 9999 BKN015 23/21 Q1014
cycle: 22

Station Type Date Time Source
SBTT TAF 2020/05/26 06:09 UTC NOAA

TAF SBTT 2606/2706 15005KT CAVOK TN20/2607Z TX29/2617Z
BECMG 2609/2611 9999 SCT008
BECMG 2613/2615 SCT025
BECMG 2621/2623 CAVOK
RMK PDY

Example: see airport list